sensor_id;sensor_type;location;lat;lon;timestamp;P1;durP1;ratioP1;P2;durP2;ratioP2
12814;SDS011;6472;52.328;13.070;2024-03-08T00:00:14;21.73;;;12.97;;
12814;SDS011;6472;52.328;13.070;2024-03-08T00:02:46;20.20;;;12.23;;
12814;SDS011;6472;52.328;13.070;2024-03-08T00:05:17;27.20;;;14.10;;
12814;SDS011;6472;52.328;13.070;2024-03-08T00:07:45;23.13;;;13.33;;
12814;SDS011;6472;52.328;13.070;2024-03-08T00:10:13;26.13;;;14.03;;
12814;SDS011;6472;52.328;13.070;2024-03-08T00:12:43;20.73;;;12.17;;
12814;SDS011;6472;52.328;13.070;2024-03-08T00:15:14;25.20;;;13.07;;
12814;SDS011;6472;52.328;13.070;2024-03-08T00:17:45;24.60;;;13.83;;
12814;SDS011;6472;52.328;13.070;2024-03-08T00:20:14;28.67;;;14.73;;
12814;SDS011;6472;52.328;13.070;2024-03-08T00:22:45;26.10;;;14.03;;
12814;SDS011;6472;52.328;13.070;2024-03-08T00:25:13;29.47;;;15.10;;
12814;SDS011;6472;52.328;13.070;2024-03-08T00:27:42;24.97;;;14.13;;
12814;SDS011;6472;52.328;13.070;2024-03-08T00:30:10;29.10;;;14.80;;
12814;SDS011;6472;52.328;13.070;2024-03-08T00:32:41;30.47;;;15.10;;
12814;SDS011;6472;52.328;13.070;2024-03-08T00:35:09;27.80;;;14.53;;
12814;SDS011;6472;52.328;13.070;2024-03-08T00:37:39;28.20;;;13.93;;
12814;SDS011;6472;52.328;13.070;2024-03-08T00:40:08;30.77;;;14.23;;
12814;SDS011;6472;52.328;13.070;2024-03-08T00:42:37;30.60;;;15.53;;
12814;SDS011;6472;52.328;13.070;2024-03-08T00:45:06;31.23;;;15.07;;
12814;SDS011;6472;52.328;13.070;2024-03-08T00:47:37;29.33;;;15.90;;
12814;SDS011;6472;52.328;13.070;2024-03-08T00:50:07;32.33;;;16.10;;
12814;SDS011;6472;52.328;13.070;2024-03-08T00:52:35;31.13;;;15.53;;
12814;SDS011;6472;52.328;13.070;2024-03-08T00:55:04;25.10;;;13.67;;
12814;SDS011;6472;52.328;13.070;2024-03-08T00:57:32;26.80;;;15.30;;
12814;SDS011;6472;52.328;13.070;2024-03-08T01:00:02;27.27;;;15.73;;
12814;SDS011;6472;52.328;13.070;2024-03-08T01:02:32;28.87;;;16.47;;
12814;SDS011;6472;52.328;13.070;2024-03-08T01:05:02;26.97;;;14.60;;
12814;SDS011;6472;52.328;13.070;2024-03-08T01:07:33;32.13;;;15.80;;
12814;SDS011;6472;52.328;13.070;2024-03-08T01:10:02;25.03;;;14.67;;
12814;SDS011;6472;52.328;13.070;2024-03-08T01:12:30;33.40;;;16.33;;
12814;SDS011;6472;52.328;13.070;2024-03-08T01:14:58;34.17;;;15.13;;
12814;SDS011;6472;52.328;13.070;2024-03-08T01:17:26;28.43;;;14.93;;
12814;SDS011;6472;52.328;13.070;2024-03-08T01:19:54;30.77;;;16.10;;
12814;SDS011;6472;52.328;13.070;2024-03-08T01:22:22;32.03;;;16.13;;
12814;SDS011;6472;52.328;13.070;2024-03-08T01:24:52;31.67;;;16.27;;
12814;SDS011;6472;52.328;13.070;2024-03-08T01:27:20;24.97;;;14.40;;
12814;SDS011;6472;52.328;13.070;2024-03-08T01:29:48;28.23;;;15.37;;
12814;SDS011;6472;52.328;13.070;2024-03-08T01:32:16;32.53;;;15.90;;
12814;SDS011;6472;52.328;13.070;2024-03-08T01:34:45;30.67;;;14.67;;
12814;SDS011;6472;52.328;13.070;2024-03-08T01:37:13;27.77;;;15.37;;
12814;SDS011;6472;52.328;13.070;2024-03-08T01:39:41;24.40;;;14.70;;
12814;SDS011;6472;52.328;13.070;2024-03-08T01:42:11;23.87;;;13.80;;
12814;SDS011;6472;52.328;13.070;2024-03-08T01:44:41;28.80;;;15.53;;
12814;SDS011;6472;52.328;13.070;2024-03-08T01:47:10;23.80;;;13.83;;
12814;SDS011;6472;52.328;13.070;2024-03-08T01:49:38;31.60;;;14.57;;
12814;SDS011;6472;52.328;13.070;2024-03-08T01:52:06;29.37;;;15.43;;
12814;SDS011;6472;52.328;13.070;2024-03-08T01:54:35;31.13;;;15.67;;
12814;SDS011;6472;52.328;13.070;2024-03-08T01:57:03;28.20;;;15.83;;
12814;SDS011;6472;52.328;13.070;2024-03-08T01:59:33;27.93;;;15.03;;
12814;SDS011;6472;52.328;13.070;2024-03-08T02:02:01;30.67;;;15.67;;
12814;SDS011;6472;52.328;13.070;2024-03-08T02:04:30;29.27;;;16.37;;
12814;SDS011;6472;52.328;13.070;2024-03-08T02:06:58;27.43;;;15.63;;
12814;SDS011;6472;52.328;13.070;2024-03-08T02:09:26;32.37;;;16.00;;
12814;SDS011;6472;52.328;13.070;2024-03-08T02:11:55;25.73;;;13.93;;
12814;SDS011;6472;52.328;13.070;2024-03-08T02:14:24;31.50;;;15.17;;
12814;SDS011;6472;52.328;13.070;2024-03-08T02:16:54;32.43;;;15.40;;
12814;SDS011;6472;52.328;13.070;2024-03-08T02:19:24;32.57;;;16.73;;
12814;SDS011;6472;52.328;13.070;2024-03-08T02:21:53;31.63;;;16.90;;
12814;SDS011;6472;52.328;13.070;2024-03-08T02:24:21;31.27;;;16.97;;
12814;SDS011;6472;52.328;13.070;2024-03-08T02:26:50;36.27;;;17.00;;
12814;SDS011;6472;52.328;13.070;2024-03-08T02:29:18;30.33;;;15.33;;
12814;SDS011;6472;52.328;13.070;2024-03-08T02:31:46;27.67;;;15.80;;
12814;SDS011;6472;52.328;13.070;2024-03-08T02:34:14;29.87;;;15.37;;
12814;SDS011;6472;52.328;13.070;2024-03-08T02:36:41;27.87;;;15.60;;
12814;SDS011;6472;52.328;13.070;2024-03-08T02:39:11;25.47;;;15.07;;
12814;SDS011;6472;52.328;13.070;2024-03-08T02:41:39;32.97;;;15.60;;
12814;SDS011;6472;52.328;13.070;2024-03-08T02:44:07;33.77;;;16.83;;
12814;SDS011;6472;52.328;13.070;2024-03-08T02:46:35;36.70;;;16.03;;
12814;SDS011;6472;52.328;13.070;2024-03-08T02:49:03;32.00;;;16.53;;
12814;SDS011;6472;52.328;13.070;2024-03-08T02:51:32;33.67;;;17.07;;
12814;SDS011;6472;52.328;13.070;2024-03-08T02:54:01;34.13;;;17.60;;
12814;SDS011;6472;52.328;13.070;2024-03-08T02:56:32;34.63;;;17.03;;
12814;SDS011;6472;52.328;13.070;2024-03-08T02:59:01;33.53;;;16.80;;
12814;SDS011;6472;52.328;13.070;2024-03-08T03:01:29;36.57;;;19.00;;
12814;SDS011;6472;52.328;13.070;2024-03-08T03:03:58;34.57;;;18.60;;
12814;SDS011;6472;52.328;13.070;2024-03-08T03:06:26;34.57;;;16.87;;
12814;SDS011;6472;52.328;13.070;2024-03-08T03:08:54;31.67;;;17.53;;
12814;SDS011;6472;52.328;13.070;2024-03-08T03:11:23;28.30;;;15.00;;
12814;SDS011;6472;52.328;13.070;2024-03-08T03:13:53;38.93;;;17.67;;
12814;SDS011;6472;52.328;13.070;2024-03-08T03:16:22;36.37;;;17.70;;
12814;SDS011;6472;52.328;13.070;2024-03-08T03:18:50;38.13;;;17.97;;
12814;SDS011;6472;52.328;13.070;2024-03-08T03:21:18;34.93;;;16.00;;
12814;SDS011;6472;52.328;13.070;2024-03-08T03:23:47;36.60;;;18.50;;
12814;SDS011;6472;52.328;13.070;2024-03-08T03:26:15;31.97;;;16.47;;
12814;SDS011;6472;52.328;13.070;2024-03-08T03:28:43;38.70;;;19.73;;
12814;SDS011;6472;52.328;13.070;2024-03-08T03:31:13;39.33;;;18.40;;
12814;SDS011;6472;52.328;13.070;2024-03-08T03:33:41;38.23;;;17.33;;
12814;SDS011;6472;52.328;13.070;2024-03-08T03:36:09;36.27;;;18.50;;
12814;SDS011;6472;52.328;13.070;2024-03-08T03:38:38;35.13;;;17.77;;
12814;SDS011;6472;52.328;13.070;2024-03-08T03:41:06;34.33;;;16.70;;
12814;SDS011;6472;52.328;13.070;2024-03-08T03:43:36;28.43;;;15.00;;
12814;SDS011;6472;52.328;13.070;2024-03-08T03:46:05;33.70;;;16.60;;
12814;SDS011;6472;52.328;13.070;2024-03-08T03:48:35;32.00;;;17.37;;
12814;SDS011;6472;52.328;13.070;2024-03-08T03:51:03;36.60;;;17.13;;
12814;SDS011;6472;52.328;13.070;2024-03-08T03:53:31;31.23;;;17.00;;
12814;SDS011;6472;52.328;13.070;2024-03-08T03:55:59;28.43;;;16.37;;
12814;SDS011;6472;52.328;13.070;2024-03-08T03:58:27;33.87;;;17.00;;
12814;SDS011;6472;52.328;13.070;2024-03-08T04:00:55;34.53;;;17.63;;
12814;SDS011;6472;52.328;13.070;2024-03-08T04:03:23;35.00;;;16.90;;
12814;SDS011;6472;52.328;13.070;2024-03-08T04:05:53;36.80;;;18.50;;
12814;SDS011;6472;52.328;13.070;2024-03-08T04:08:21;38.20;;;17.03;;
12814;SDS011;6472;52.328;13.070;2024-03-08T04:10:50;34.60;;;17.90;;
12814;SDS011;6472;52.328;13.070;2024-03-08T04:13:18;32.80;;;16.20;;
12814;SDS011;6472;52.328;13.070;2024-03-08T04:15:47;34.93;;;18.43;;
12814;SDS011;6472;52.328;13.070;2024-03-08T04:18:15;37.70;;;19.57;;
12814;SDS011;6472;52.328;13.070;2024-03-08T04:20:44;33.23;;;16.50;;
12814;SDS011;6472;52.328;13.070;2024-03-08T04:23:14;42.70;;;19.33;;
12814;SDS011;6472;52.328;13.070;2024-03-08T04:25:43;33.67;;;19.03;;
12814;SDS011;6472;52.328;13.070;2024-03-08T04:28:12;32.13;;;16.80;;
12814;SDS011;6472;52.328;13.070;2024-03-08T04:30:40;42.13;;;18.37;;
12814;SDS011;6472;52.328;13.070;2024-03-08T04:33:09;45.57;;;21.13;;
12814;SDS011;6472;52.328;13.070;2024-03-08T04:35:37;40.70;;;19.20;;
12814;SDS011;6472;52.328;13.070;2024-03-08T04:38:05;35.23;;;17.57;;
12814;SDS011;6472;52.328;13.070;2024-03-08T04:40:35;39.33;;;19.13;;
12814;SDS011;6472;52.328;13.070;2024-03-08T04:43:03;38.43;;;18.40;;
12814;SDS011;6472;52.328;13.070;2024-03-08T04:45:31;36.83;;;18.83;;
12814;SDS011;6472;52.328;13.070;2024-03-08T04:48:00;42.07;;;18.93;;
12814;SDS011;6472;52.328;13.070;2024-03-08T04:50:28;41.63;;;19.73;;
12814;SDS011;6472;52.328;13.070;2024-03-08T04:52:56;38.10;;;19.57;;
12814;SDS011;6472;52.328;13.070;2024-03-08T04:55:24;40.73;;;19.27;;
12814;SDS011;6472;52.328;13.070;2024-03-08T04:57:53;40.67;;;19.63;;
12814;SDS011;6472;52.328;13.070;2024-03-08T05:00:21;45.30;;;20.37;;
12814;SDS011;6472;52.328;13.070;2024-03-08T05:02:50;42.60;;;19.87;;
12814;SDS011;6472;52.328;13.070;2024-03-08T05:05:20;41.97;;;20.43;;
12814;SDS011;6472;52.328;13.070;2024-03-08T05:07:49;41.60;;;20.97;;
12814;SDS011;6472;52.328;13.070;2024-03-08T05:10:17;34.93;;;17.53;;
12814;SDS011;6472;52.328;13.070;2024-03-08T05:12:45;40.83;;;18.90;;
12814;SDS011;6472;52.328;13.070;2024-03-08T05:15:14;35.70;;;17.63;;
12814;SDS011;6472;52.328;13.070;2024-03-08T05:17:43;43.87;;;20.47;;
12814;SDS011;6472;52.328;13.070;2024-03-08T05:20:11;39.60;;;19.87;;
12814;SDS011;6472;52.328;13.070;2024-03-08T05:22:39;43.07;;;20.47;;
12814;SDS011;6472;52.328;13.070;2024-03-08T05:25:08;37.90;;;19.33;;
12814;SDS011;6472;52.328;13.070;2024-03-08T05:27:37;39.27;;;19.57;;
12814;SDS011;6472;52.328;13.070;2024-03-08T05:30:05;44.77;;;18.87;;
12814;SDS011;6472;52.328;13.070;2024-03-08T05:32:35;42.83;;;21.23;;
12814;SDS011;6472;52.328;13.070;2024-03-08T05:35:04;38.13;;;19.87;;
12814;SDS011;6472;52.328;13.070;2024-03-08T05:37:33;41.80;;;20.47;;
12814;SDS011;6472;52.328;13.070;2024-03-08T05:40:02;38.47;;;18.43;;
12814;SDS011;6472;52.328;13.070;2024-03-08T05:42:41;44.77;;;20.07;;
12814;SDS011;6472;52.328;13.070;2024-03-08T05:45:09;45.07;;;21.67;;
12814;SDS011;6472;52.328;13.070;2024-03-08T05:47:40;41.90;;;21.53;;
12814;SDS011;6472;52.328;13.070;2024-03-08T05:50:08;43.13;;;20.07;;
12814;SDS011;6472;52.328;13.070;2024-03-08T05:52:37;45.17;;;21.10;;
12814;SDS011;6472;52.328;13.070;2024-03-08T05:55:06;49.53;;;24.33;;
12814;SDS011;6472;52.328;13.070;2024-03-08T05:57:36;49.47;;;23.80;;
12814;SDS011;6472;52.328;13.070;2024-03-08T06:00:06;48.70;;;22.70;;
12814;SDS011;6472;52.328;13.070;2024-03-08T06:02:37;48.67;;;25.53;;
12814;SDS011;6472;52.328;13.070;2024-03-08T06:05:09;52.30;;;25.53;;
12814;SDS011;6472;52.328;13.070;2024-03-08T06:07:38;46.93;;;22.23;;
12814;SDS011;6472;52.328;13.070;2024-03-08T06:10:07;45.10;;;22.50;;
12814;SDS011;6472;52.328;13.070;2024-03-08T06:12:38;43.63;;;21.67;;
12814;SDS011;6472;52.328;13.070;2024-03-08T06:15:08;48.10;;;23.60;;
12814;SDS011;6472;52.328;13.070;2024-03-08T06:17:40;46.63;;;23.20;;
12814;SDS011;6472;52.328;13.070;2024-03-08T06:20:10;39.40;;;19.93;;
12814;SDS011;6472;52.328;13.070;2024-03-08T06:22:40;43.57;;;22.83;;
12814;SDS011;6472;52.328;13.070;2024-03-08T06:25:08;49.33;;;23.27;;
12814;SDS011;6472;52.328;13.070;2024-03-08T06:27:37;38.87;;;20.07;;
12814;SDS011;6472;52.328;13.070;2024-03-08T06:30:05;44.20;;;23.57;;
12814;SDS011;6472;52.328;13.070;2024-03-08T06:32:36;51.20;;;23.20;;
12814;SDS011;6472;52.328;13.070;2024-03-08T06:35:04;45.10;;;22.93;;
12814;SDS011;6472;52.328;13.070;2024-03-08T06:37:35;47.10;;;22.73;;
12814;SDS011;6472;52.328;13.070;2024-03-08T06:40:04;44.43;;;21.73;;
12814;SDS011;6472;52.328;13.070;2024-03-08T06:42:34;47.60;;;21.43;;
12814;SDS011;6472;52.328;13.070;2024-03-08T06:45:02;45.80;;;22.13;;
12814;SDS011;6472;52.328;13.070;2024-03-08T06:47:32;48.00;;;22.40;;
12814;SDS011;6472;52.328;13.070;2024-03-08T06:50:01;39.77;;;20.43;;
12814;SDS011;6472;52.328;13.070;2024-03-08T06:52:29;45.37;;;21.50;;
12814;SDS011;6472;52.328;13.070;2024-03-08T06:54:58;44.93;;;22.30;;
12814;SDS011;6472;52.328;13.070;2024-03-08T06:57:28;48.87;;;23.53;;
12814;SDS011;6472;52.328;13.070;2024-03-08T06:59:56;48.33;;;23.10;;
12814;SDS011;6472;52.328;13.070;2024-03-08T07:02:24;46.77;;;24.17;;
12814;SDS011;6472;52.328;13.070;2024-03-08T07:04:52;51.73;;;23.70;;
12814;SDS011;6472;52.328;13.070;2024-03-08T07:07:21;40.40;;;22.20;;
12814;SDS011;6472;52.328;13.070;2024-03-08T07:09:48;45.37;;;23.80;;
12814;SDS011;6472;52.328;13.070;2024-03-08T07:12:18;45.00;;;23.27;;
12814;SDS011;6472;52.328;13.070;2024-03-08T07:14:47;50.30;;;23.50;;
12814;SDS011;6472;52.328;13.070;2024-03-08T07:17:15;46.83;;;23.73;;
12814;SDS011;6472;52.328;13.070;2024-03-08T07:19:43;41.30;;;21.87;;
12814;SDS011;6472;52.328;13.070;2024-03-08T07:22:11;49.23;;;23.67;;
12814;SDS011;6472;52.328;13.070;2024-03-08T07:24:39;45.07;;;22.30;;
12814;SDS011;6472;52.328;13.070;2024-03-08T07:27:23;46.00;;;23.03;;
12814;SDS011;6472;52.328;13.070;2024-03-08T07:29:51;43.87;;;22.63;;
12814;SDS011;6472;52.328;13.070;2024-03-08T07:32:34;42.87;;;19.97;;
12814;SDS011;6472;52.328;13.070;2024-03-08T07:35:02;42.60;;;20.90;;
12814;SDS011;6472;52.328;13.070;2024-03-08T07:37:31;40.83;;;20.63;;
12814;SDS011;6472;52.328;13.070;2024-03-08T07:39:59;42.07;;;21.33;;
12814;SDS011;6472;52.328;13.070;2024-03-08T07:42:28;44.00;;;21.83;;
12814;SDS011;6472;52.328;13.070;2024-03-08T07:44:56;41.13;;;21.57;;
12814;SDS011;6472;52.328;13.070;2024-03-08T07:47:24;42.70;;;21.00;;
12814;SDS011;6472;52.328;13.070;2024-03-08T07:49:53;41.83;;;21.07;;
12814;SDS011;6472;52.328;13.070;2024-03-08T07:52:21;44.27;;;22.17;;
12814;SDS011;6472;52.328;13.070;2024-03-08T07:54:49;38.67;;;21.20;;
12814;SDS011;6472;52.328;13.070;2024-03-08T07:57:17;43.20;;;21.90;;
12814;SDS011;6472;52.328;13.070;2024-03-08T07:59:47;41.47;;;20.80;;
12814;SDS011;6472;52.328;13.070;2024-03-08T08:02:15;36.63;;;20.60;;
12814;SDS011;6472;52.328;13.070;2024-03-08T08:04:43;42.23;;;21.50;;
12814;SDS011;6472;52.328;13.070;2024-03-08T08:07:12;34.83;;;19.90;;
12814;SDS011;6472;52.328;13.070;2024-03-08T08:09:41;39.83;;;21.90;;
12814;SDS011;6472;52.328;13.070;2024-03-08T08:12:09;38.33;;;20.57;;
12814;SDS011;6472;52.328;13.070;2024-03-08T08:14:38;34.57;;;19.70;;
12814;SDS011;6472;52.328;13.070;2024-03-08T08:17:08;36.47;;;20.67;;
12814;SDS011;6472;52.328;13.070;2024-03-08T08:19:37;34.10;;;19.37;;
12814;SDS011;6472;52.328;13.070;2024-03-08T08:22:05;28.50;;;19.27;;
12814;SDS011;6472;52.328;13.070;2024-03-08T08:24:35;29.90;;;19.00;;
12814;SDS011;6472;52.328;13.070;2024-03-08T08:27:03;31.50;;;19.67;;
12814;SDS011;6472;52.328;13.070;2024-03-08T08:29:31;33.80;;;20.27;;
12814;SDS011;6472;52.328;13.070;2024-03-08T08:32:01;32.43;;;19.20;;
12814;SDS011;6472;52.328;13.070;2024-03-08T08:34:31;33.10;;;20.47;;
12814;SDS011;6472;52.328;13.070;2024-03-08T08:36:59;30.37;;;17.40;;
12814;SDS011;6472;52.328;13.070;2024-03-08T08:39:28;28.60;;;17.97;;
12814;SDS011;6472;52.328;13.070;2024-03-08T08:41:56;29.13;;;19.07;;
12814;SDS011;6472;52.328;13.070;2024-03-08T08:44:24;28.00;;;18.43;;
12814;SDS011;6472;52.328;13.070;2024-03-08T08:46:52;29.57;;;17.83;;
12814;SDS011;6472;52.328;13.070;2024-03-08T08:49:28;33.93;;;19.90;;
12814;SDS011;6472;52.328;13.070;2024-03-08T08:51:58;31.80;;;18.87;;
12814;SDS011;6472;52.328;13.070;2024-03-08T08:54:37;30.37;;;19.20;;
12814;SDS011;6472;52.328;13.070;2024-03-08T08:57:05;32.43;;;19.57;;
12814;SDS011;6472;52.328;13.070;2024-03-08T08:59:34;30.53;;;18.73;;
12814;SDS011;6472;52.328;13.070;2024-03-08T09:02:03;32.00;;;19.13;;
12814;SDS011;6472;52.328;13.070;2024-03-08T09:04:31;31.73;;;19.30;;
12814;SDS011;6472;52.328;13.070;2024-03-08T09:07:00;31.83;;;19.07;;
12814;SDS011;6472;52.328;13.070;2024-03-08T09:09:32;33.23;;;21.20;;
12814;SDS011;6472;52.328;13.070;2024-03-08T09:12:01;29.37;;;18.47;;
12814;SDS011;6472;52.328;13.070;2024-03-08T09:14:29;28.00;;;18.43;;
12814;SDS011;6472;52.328;13.070;2024-03-08T09:16:57;26.57;;;17.67;;
12814;SDS011;6472;52.328;13.070;2024-03-08T09:19:25;25.70;;;18.00;;
12814;SDS011;6472;52.328;13.070;2024-03-08T09:21:53;28.27;;;17.73;;
12814;SDS011;6472;52.328;13.070;2024-03-08T09:24:22;23.97;;;17.87;;
12814;SDS011;6472;52.328;13.070;2024-03-08T09:26:50;27.23;;;17.97;;
12814;SDS011;6472;52.328;13.070;2024-03-08T09:29:18;28.63;;;16.63;;
12814;SDS011;6472;52.328;13.070;2024-03-08T09:31:46;30.67;;;18.40;;
12814;SDS011;6472;52.328;13.070;2024-03-08T09:34:14;27.67;;;18.07;;
12814;SDS011;6472;52.328;13.070;2024-03-08T09:36:50;28.70;;;18.33;;
12814;SDS011;6472;52.328;13.070;2024-03-08T09:39:18;25.83;;;16.90;;
12814;SDS011;6472;52.328;13.070;2024-03-08T09:41:50;25.10;;;16.63;;
12814;SDS011;6472;52.328;13.070;2024-03-08T09:44:18;24.70;;;17.03;;
12814;SDS011;6472;52.328;13.070;2024-03-08T09:46:46;33.30;;;16.63;;
12814;SDS011;6472;52.328;13.070;2024-03-08T09:49:14;25.73;;;15.10;;
12814;SDS011;6472;52.328;13.070;2024-03-08T09:51:43;28.73;;;17.37;;
12814;SDS011;6472;52.328;13.070;2024-03-08T09:54:12;21.63;;;13.70;;
12814;SDS011;6472;52.328;13.070;2024-03-08T09:56:49;27.33;;;15.27;;
12814;SDS011;6472;52.328;13.070;2024-03-08T09:59:19;24.03;;;14.67;;
12814;SDS011;6472;52.328;13.070;2024-03-08T10:02:09;21.60;;;14.43;;
12814;SDS011;6472;52.328;13.070;2024-03-08T10:04:42;24.27;;;15.47;;
12814;SDS011;6472;52.328;13.070;2024-03-08T10:07:12;22.10;;;14.77;;
12814;SDS011;6472;52.328;13.070;2024-03-08T10:09:41;21.67;;;13.87;;
12814;SDS011;6472;52.328;13.070;2024-03-08T10:12:15;23.00;;;14.30;;
12814;SDS011;6472;52.328;13.070;2024-03-08T10:14:43;21.83;;;13.13;;
12814;SDS011;6472;52.328;13.070;2024-03-08T10:17:12;22.87;;;13.97;;
12814;SDS011;6472;52.328;13.070;2024-03-08T10:19:47;24.23;;;14.20;;
12814;SDS011;6472;52.328;13.070;2024-03-08T10:22:17;22.60;;;13.80;;
12814;SDS011;6472;52.328;13.070;2024-03-08T10:24:45;26.80;;;15.63;;
12814;SDS011;6472;52.328;13.070;2024-03-08T10:27:16;21.93;;;14.43;;
12814;SDS011;6472;52.328;13.070;2024-03-08T10:29:46;22.63;;;14.20;;
12814;SDS011;6472;52.328;13.070;2024-03-08T10:32:15;24.07;;;14.63;;
12814;SDS011;6472;52.328;13.070;2024-03-08T10:34:43;22.80;;;14.60;;
12814;SDS011;6472;52.328;13.070;2024-03-08T10:37:12;27.03;;;15.80;;
12814;SDS011;6472;52.328;13.070;2024-03-08T10:39:45;25.50;;;14.73;;
12814;SDS011;6472;52.328;13.070;2024-03-08T10:42:27;25.90;;;15.47;;
12814;SDS011;6472;52.328;13.070;2024-03-08T10:44:58;28.33;;;16.37;;
12814;SDS011;6472;52.328;13.070;2024-03-08T10:47:32;21.10;;;15.03;;
12814;SDS011;6472;52.328;13.070;2024-03-08T10:50:08;24.50;;;15.23;;
12814;SDS011;6472;52.328;13.070;2024-03-08T10:52:48;23.67;;;15.50;;
12814;SDS011;6472;52.328;13.070;2024-03-08T10:55:17;26.27;;;13.80;;
12814;SDS011;6472;52.328;13.070;2024-03-08T10:57:48;22.43;;;13.63;;
12814;SDS011;6472;52.328;13.070;2024-03-08T11:00:17;22.57;;;12.30;;
12814;SDS011;6472;52.328;13.070;2024-03-08T11:02:52;24.63;;;14.03;;
12814;SDS011;6472;52.328;13.070;2024-03-08T11:05:31;24.63;;;13.23;;
12814;SDS011;6472;52.328;13.070;2024-03-08T11:08:01;20.43;;;12.47;;
12814;SDS011;6472;52.328;13.070;2024-03-08T11:10:31;23.60;;;13.03;;
12814;SDS011;6472;52.328;13.070;2024-03-08T11:13:00;22.80;;;12.60;;
12814;SDS011;6472;52.328;13.070;2024-03-08T11:15:29;20.70;;;12.13;;
12814;SDS011;6472;52.328;13.070;2024-03-08T11:17:58;20.60;;;13.23;;
12814;SDS011;6472;52.328;13.070;2024-03-08T11:20:27;18.20;;;12.53;;
12814;SDS011;6472;52.328;13.070;2024-03-08T11:23:00;21.50;;;12.07;;
12814;SDS011;6472;52.328;13.070;2024-03-08T11:25:31;20.03;;;12.30;;
12814;SDS011;6472;52.328;13.070;2024-03-08T11:28:12;19.77;;;11.87;;
12814;SDS011;6472;52.328;13.070;2024-03-08T11:30:44;20.37;;;12.20;;
12814;SDS011;6472;52.328;13.070;2024-03-08T11:33:16;21.70;;;12.03;;
12814;SDS011;6472;52.328;13.070;2024-03-08T11:35:44;18.53;;;11.30;;
12814;SDS011;6472;52.328;13.070;2024-03-08T11:38:13;19.63;;;11.07;;
12814;SDS011;6472;52.328;13.070;2024-03-08T11:40:42;21.17;;;12.10;;
12814;SDS011;6472;52.328;13.070;2024-03-08T11:43:17;21.87;;;12.07;;
12814;SDS011;6472;52.328;13.070;2024-03-08T11:45:46;18.93;;;11.57;;
12814;SDS011;6472;52.328;13.070;2024-03-08T11:48:14;19.70;;;12.87;;
12814;SDS011;6472;52.328;13.070;2024-03-08T11:50:42;21.67;;;13.23;;
12814;SDS011;6472;52.328;13.070;2024-03-08T11:53:10;21.77;;;14.70;;
12814;SDS011;6472;52.328;13.070;2024-03-08T11:55:39;20.47;;;12.53;;
12814;SDS011;6472;52.328;13.070;2024-03-08T11:58:08;22.90;;;13.47;;
12814;SDS011;6472;52.328;13.070;2024-03-08T12:00:41;24.03;;;13.33;;
12814;SDS011;6472;52.328;13.070;2024-03-08T12:03:08;18.87;;;12.67;;
12814;SDS011;6472;52.328;13.070;2024-03-08T12:05:37;21.73;;;12.40;;
12814;SDS011;6472;52.328;13.070;2024-03-08T12:08:05;16.83;;;11.97;;
12814;SDS011;6472;52.328;13.070;2024-03-08T12:10:35;21.63;;;13.07;;
12814;SDS011;6472;52.328;13.070;2024-03-08T12:13:03;23.23;;;13.83;;
12814;SDS011;6472;52.328;13.070;2024-03-08T12:15:40;18.37;;;13.10;;
12814;SDS011;6472;52.328;13.070;2024-03-08T12:18:10;22.20;;;12.73;;
12814;SDS011;6472;52.328;13.070;2024-03-08T12:20:39;25.67;;;12.73;;
12814;SDS011;6472;52.328;13.070;2024-03-08T12:23:14;21.53;;;12.00;;
12814;SDS011;6472;52.328;13.070;2024-03-08T12:25:43;20.17;;;12.57;;
12814;SDS011;6472;52.328;13.070;2024-03-08T12:28:11;23.30;;;14.17;;
12814;SDS011;6472;52.328;13.070;2024-03-08T12:30:49;18.97;;;13.00;;
12814;SDS011;6472;52.328;13.070;2024-03-08T12:33:19;19.70;;;12.57;;
12814;SDS011;6472;52.328;13.070;2024-03-08T12:35:51;22.10;;;13.07;;
12814;SDS011;6472;52.328;13.070;2024-03-08T12:38:27;20.60;;;12.17;;
12814;SDS011;6472;52.328;13.070;2024-03-08T12:40:58;21.80;;;12.53;;
12814;SDS011;6472;52.328;13.070;2024-03-08T12:43:27;19.50;;;11.90;;
12814;SDS011;6472;52.328;13.070;2024-03-08T12:45:58;15.90;;;10.50;;
12814;SDS011;6472;52.328;13.070;2024-03-08T12:48:26;23.20;;;12.13;;
12814;SDS011;6472;52.328;13.070;2024-03-08T12:50:54;18.77;;;11.40;;
12814;SDS011;6472;52.328;13.070;2024-03-08T12:53:22;16.67;;;11.20;;
12814;SDS011;6472;52.328;13.070;2024-03-08T12:55:51;16.07;;;10.00;;
12814;SDS011;6472;52.328;13.070;2024-03-08T12:58:22;19.27;;;10.63;;
12814;SDS011;6472;52.328;13.070;2024-03-08T13:00:52;18.57;;;11.37;;
12814;SDS011;6472;52.328;13.070;2024-03-08T13:03:22;17.77;;;11.40;;
12814;SDS011;6472;52.328;13.070;2024-03-08T13:05:50;18.97;;;10.73;;
12814;SDS011;6472;52.328;13.070;2024-03-08T13:08:18;16.27;;;10.67;;
12814;SDS011;6472;52.328;13.070;2024-03-08T13:10:48;13.37;;;9.67;;
12814;SDS011;6472;52.328;13.070;2024-03-08T13:13:17;17.20;;;10.20;;
12814;SDS011;6472;52.328;13.070;2024-03-08T13:15:46;12.27;;;9.10;;
12814;SDS011;6472;52.328;13.070;2024-03-08T13:18:15;17.73;;;9.87;;
12814;SDS011;6472;52.328;13.070;2024-03-08T13:20:45;18.80;;;10.90;;
12814;SDS011;6472;52.328;13.070;2024-03-08T13:23:15;17.60;;;10.40;;
12814;SDS011;6472;52.328;13.070;2024-03-08T13:25:44;14.97;;;10.60;;
12814;SDS011;6472;52.328;13.070;2024-03-08T13:28:14;16.23;;;10.30;;
12814;SDS011;6472;52.328;13.070;2024-03-08T13:30:42;15.87;;;10.57;;
12814;SDS011;6472;52.328;13.070;2024-03-08T13:33:11;16.27;;;10.20;;
12814;SDS011;6472;52.328;13.070;2024-03-08T13:35:39;17.77;;;10.70;;
12814;SDS011;6472;52.328;13.070;2024-03-08T13:38:09;15.73;;;9.67;;
12814;SDS011;6472;52.328;13.070;2024-03-08T13:40:39;15.47;;;9.53;;
12814;SDS011;6472;52.328;13.070;2024-03-08T13:43:07;18.67;;;11.00;;
12814;SDS011;6472;52.328;13.070;2024-03-08T13:45:35;15.67;;;10.13;;
12814;SDS011;6472;52.328;13.070;2024-03-08T13:48:05;16.00;;;9.73;;
12814;SDS011;6472;52.328;13.070;2024-03-08T13:50:33;17.80;;;11.20;;
12814;SDS011;6472;52.328;13.070;2024-03-08T13:53:01;15.90;;;10.40;;
12814;SDS011;6472;52.328;13.070;2024-03-08T13:55:31;17.83;;;10.80;;
12814;SDS011;6472;52.328;13.070;2024-03-08T13:57:59;16.13;;;11.50;;
12814;SDS011;6472;52.328;13.070;2024-03-08T14:00:28;16.57;;;10.53;;
12814;SDS011;6472;52.328;13.070;2024-03-08T14:03:00;14.87;;;10.33;;
12814;SDS011;6472;52.328;13.070;2024-03-08T14:05:29;16.17;;;10.37;;
12814;SDS011;6472;52.328;13.070;2024-03-08T14:08:01;15.13;;;9.73;;
12814;SDS011;6472;52.328;13.070;2024-03-08T14:10:31;14.80;;;9.47;;
12814;SDS011;6472;52.328;13.070;2024-03-08T14:13:00;14.20;;;9.23;;
12814;SDS011;6472;52.328;13.070;2024-03-08T14:15:29;14.67;;;9.03;;
12814;SDS011;6472;52.328;13.070;2024-03-08T14:17:57;21.83;;;10.13;;
12814;SDS011;6472;52.328;13.070;2024-03-08T14:20:25;17.00;;;9.30;;
12814;SDS011;6472;52.328;13.070;2024-03-08T14:22:53;17.63;;;9.03;;
12814;SDS011;6472;52.328;13.070;2024-03-08T14:25:23;17.60;;;9.20;;
12814;SDS011;6472;52.328;13.070;2024-03-08T14:27:53;17.00;;;10.67;;
12814;SDS011;6472;52.328;13.070;2024-03-08T14:30:25;12.13;;;9.27;;
12814;SDS011;6472;52.328;13.070;2024-03-08T14:33:09;13.13;;;8.63;;